Weersoverzicht van METAR-stations binnen 150 km

EHRD - Rotterdam Airport
Afstand tot weerstation: ZO 28 km
Update: 17-10-2018 15:55
Gedeeltelijk bewolkt
Gedeeltelijk bewolkt
 Wind van WNW
Wind: WNW 11 km/h
Temperatuur: 18°C
Dauwpunt: 14°C
Luchtvochtigheid: 78%
Luchtdruk: 1019 hPa
Bewolking: Gedeeltelijk bewolkt
Zicht: 10 km
Details Bewolking: Gedeeltelijk bewolkt 1036 m
2018/10/17 13:55 EHRD 171355Z AUTO 30006KT 250V350 9999 SCT034 18/14 Q1019 NOSIG
EHSC - Goeree Le Sea (Platform ter hoogte van Zeeland)
Afstand tot weerstation: WZW 36 km
Update: 17-10-2018 15:55

 Wind van W
Wind: W 17 km/h
Temperatuur: 16°C
Dauwpunt: 11°C
Luchtvochtigheid: 72%
Luchtdruk: 1019 hPa
Zicht: 10 km
2018/10/17 13:55 EHSC 171355Z AUTO 27009KT 9999 ///////// 16/11 Q1019 W17/H5
 
EHAM - A'dam Schiphol
Afstand tot weerstation: ONO 51 km
Update: 17-10-2018 15:55
Enkele wolken
Enkele wolken
 Wind van WNW
Wind: WNW 15 km/h
Temperatuur: 18°C
Dauwpunt: 12°C
Luchtvochtigheid: 68%
Luchtdruk: 1019 hPa
Bewolking: Enkele wolken
Zicht: 10 km
Details Bewolking: Enkele wolken 671 m
2018/10/17 13:55 EHAM 171355Z 29008KT 9999 FEW022 18/12 Q1019 NOSIG
EHSA - Euro Platform (Ter hoogte van Zeeland)
Afstand tot weerstation: W 58 km
Update: 17-10-2018 15:55

 Wind van WZW
Wind: WZW 19 km/h
Temperatuur: 16°C
Dauwpunt: 11°C
Luchtvochtigheid: 72%
Luchtdruk: 1019 hPa
Zicht: 10 km
2018/10/17 13:55 EHSA 171355Z AUTO 25010KT 9999 ///////// 16/11 Q1019 W15/H5
 
EHPG - P11-B Sea (Platform ter hoogte van Zuid Holland)
Afstand tot weerstation: NW 60 km
Update: 17-10-2018 15:55
Enkele wolken
Enkele wolken
 Wind van WZW
Wind: WZW 17 km/h
Temperatuur: 15°C
Dauwpunt: 10°C
Luchtvochtigheid: 72%
Luchtdruk: 1019 hPa
Bewolking: Enkele wolken
Zicht: 10 km
Details Bewolking: Enkele wolken 640 m
2018/10/17 13:55 EHPG 171355Z AUTO 25009KT 210V340 9999 FEW021 15/10 Q1019 W///H///
EHWO - Vliegveld Woensdrecht
Afstand tot weerstation: ZZO 65 km
Update: 17-10-2018 15:55
Zwaar bewolkt
Zwaar bewolkt
 Wind van W
Wind: W 11 km/h
Temperatuur: 18°C
Dauwpunt: 12°C
Luchtvochtigheid: 68%
Luchtdruk: 1019 hPa
Bewolking: Zwaar bewolkt
Zicht: 10 km
Details Bewolking: Zwaar bewolkt 10668 m
2018/10/17 13:55 EHWO 171355Z AUTO 28006KT 240V320 9999 OVC350 18/12 Q1019 BLU 30006KT 9999 SCT025 SCT032 BKN240
 
EHGR - Vliegveld Gilze-Rijen
Afstand tot weerstation: ZO 79 km
Update: 17-10-2018 16:03
Zwaar bewolkt
Zwaar bewolkt
 Wind van NW
Wind: NW 11 km/h
Temperatuur: 19°C
Dauwpunt: 13°C
Luchtvochtigheid: 68%
Luchtdruk: 1019 hPa
Bewolking: Zwaar bewolkt
Zicht: 10 km
Details Bewolking: Overwegend bewolkt 732 m
Zwaar bewolkt 914 m
2018/10/17 14:03 EHGR 171403Z AUTO 31006KT 270V350 9999 BKN024 OVC030 19/13 Q1019 WHT 28005KT 9999 SCT024
EHQE - Hoorn-A Sea (Platform ter hoogte van Noord Holland)
Afstand tot weerstation: N 103 km
Update: 17-10-2018 15:55
Overwegend bewolkt
Overwegend bewolkt
 Wind van ZW
Wind: ZW 17 km/h
Temperatuur: 15°C
Dauwpunt: 11°C
Luchtvochtigheid: 77%
Luchtdruk: 1019 hPa
Bewolking: Overwegend bewolkt
Zicht: 10 km
Details Bewolking: Enkele wolken 549 m
Overwegend bewolkt 671 m
2018/10/17 13:55 EHQE 171355Z AUTO 22009KT 9999 FEW018 BKN022 15/11 Q1019 W///H///
 
EHKD - Marinebasis De Kooy (Den Helder)
Afstand tot weerstation: NNO 114 km
Update: 17-10-2018 15:55
Zwaar bewolkt
Zwaar bewolkt
 Wind van W
Wind: W 19 km/h
Temperatuur: 17°C
Dauwpunt: 13°C
Luchtvochtigheid: 77%
Luchtdruk: 1019 hPa
Bewolking: Zwaar bewolkt
Zicht: 10 km
Details Bewolking: Zwaar bewolkt 10058 m
2018/10/17 13:55 EHKD 171355Z AUTO 26010KT 230V290 9999 OVC330 17/13 Q1019 BLU 26012KT 9999 FEW022
EHEH - Vliegveld Eindhoven
Afstand tot weerstation: OZO 115 km
Update: 17-10-2018 15:55
Overwegend bewolkt
Overwegend bewolkt
 Wind van N
Wind: N 7 km/h
Temperatuur: 20°C
Dauwpunt: 13°C
Luchtvochtigheid: 64%
Luchtdruk: 1019 hPa
Bewolking: Overwegend bewolkt
Zicht: 10 km
Details Bewolking: Enkele wolken 853 m
Overwegend bewolkt 10058 m
2018/10/17 13:55 EHEH 171355Z AUTO 35004KT 280V030 9999 FEW028 BKN330 20/13 Q1019 BLU 34003KT 9999 FEW025 SCT250
 
EHVK - Vliegveld Volkel
Afstand tot weerstation: OZO 124 km
Update: 17-10-2018 15:55
Zwaar bewolkt
Zwaar bewolkt
 Wind van NW
Wind: NW 6 km/h
Temperatuur: 20°C
Dauwpunt: 14°C
Luchtvochtigheid: 69%
Luchtdruk: 1018 hPa
Bewolking: Zwaar bewolkt
Zicht: 10 km
Details Bewolking: Zwaar bewolkt 10058 m
2018/10/17 13:55 EHVK 171355Z AUTO 32003KT 250V030 9999 OVC330 20/14 Q1018 BLU 33003KT CAVOK
EHDL - Vliegveld Deelen
Afstand tot weerstation: O 128 km
Update: 17-10-2018 15:55
Zwaar bewolkt
Zwaar bewolkt
 Wind van NW
Wind: NW 6 km/h
Temperatuur: 20°C
Dauwpunt: 14°C
Luchtvochtigheid: 69%
Luchtdruk: 1018 hPa
Bewolking: Zwaar bewolkt
Zicht: 10 km
Details Bewolking: Zwaar bewolkt 823 m
2018/10/17 13:55 EHDL 171355Z AUTO 32003KT 300V010 9999 OVC027 20/14 Q1018 BLU